PIA weather

General Wayne A. Downing Peoria International Airport
Peoria, Illinois, United States

Public forecast

Using degrees Fahrenheit for public forecast. Weather courtesy of forecast.io.

Current aviation weather report (METAR) for General Wayne A. Downing Peoria International Airport

Retrieved 2020/04/07 15:54 UTC (58 minutes ago):

KPIA 071554Z 22010KT 180V260 10SM BKN025 22/16 A2979 RMK AO2 SLP085 T02220156

Aviation forecast (TAF) for General Wayne A. Downing Peoria International Airport

Retrieved 2020/04/07 12:27 UTC (4 hours ago):

TAF KPIA 071124Z 0712/0812 22008KT P6SM SCT045 BKN250 FM072000 22012KT P6SM SCT060 FM080000 24010KT P6SM VCTS BKN045CB FM080500 36005KT P6SM SCT250